createdAt,value
2018-02-04T00:01:24.935Z,7.28
2018-02-04T00:03:52.425Z,6.40
2018-02-04T00:06:19.972Z,7.00
2018-02-04T00:08:47.494Z,6.93
2018-02-04T00:11:15.753Z,6.50
2018-02-04T00:13:44.012Z,6.75
2018-02-04T00:16:11.534Z,6.50
2018-02-04T00:18:39.034Z,6.22
2018-02-04T00:21:06.543Z,6.93
2018-02-04T00:23:34.079Z,6.87
2018-02-04T00:26:02.354Z,6.47
2018-02-04T00:28:30.609Z,6.32
2018-02-04T00:30:58.149Z,6.10
2018-02-04T00:33:25.644Z,5.65
2018-02-04T00:35:53.901Z,6.10
2018-02-04T00:38:21.417Z,6.07
2018-02-04T00:40:48.918Z,6.95
2018-02-04T00:43:16.404Z,7.07
2018-02-04T00:45:44.702Z,6.75
2018-02-04T00:48:12.206Z,6.20
2018-02-04T00:50:39.715Z,5.85
2018-02-04T00:53:07.237Z,6.40
2018-02-04T00:55:35.516Z,5.55
2018-02-04T00:58:03.792Z,5.60
2018-02-04T01:00:32.077Z,5.20
2018-02-04T01:03:00.352Z,6.62
2018-02-04T01:05:28.680Z,5.90
2018-02-04T01:07:56.188Z,5.72
2018-02-04T01:10:24.450Z,4.65
2018-02-04T01:12:52.718Z,5.00
2018-02-04T01:15:20.236Z,5.60
2018-02-04T01:17:47.733Z,4.87
2018-02-04T01:20:15.230Z,4.55
2018-02-04T01:22:42.740Z,4.07
2018-02-04T01:25:10.238Z,4.32
2018-02-04T01:27:37.728Z,4.55
2018-02-04T01:30:05.241Z,4.55
2018-02-04T01:32:33.505Z,5.07
2018-02-04T01:35:01.774Z,4.32
2018-02-04T01:37:29.297Z,5.18
2018-02-04T01:39:56.812Z,5.57
2018-02-04T01:42:25.081Z,5.10
2018-02-04T01:44:53.365Z,4.62
2018-02-04T01:47:21.631Z,5.00
2018-02-04T01:49:49.898Z,5.03
2018-02-04T01:52:17.418Z,5.20
2018-02-04T01:54:44.912Z,4.70
2018-02-04T01:57:12.397Z,4.47
2018-02-04T01:59:40.667Z,5.10
2018-02-04T02:02:08.925Z,4.45
2018-02-04T02:04:36.416Z,4.85
2018-02-04T02:07:03.943Z,4.97
2018-02-04T02:09:31.468Z,4.95
2018-02-04T02:11:58.978Z,5.18
2018-02-04T02:14:27.264Z,6.87
2018-02-04T02:16:55.529Z,5.60
2018-02-04T02:19:23.794Z,7.05
2018-02-04T02:21:51.318Z,7.47
2018-02-04T02:24:18.815Z,7.65
2018-02-04T02:26:47.095Z,6.87
2018-02-04T02:29:15.392Z,6.18
2018-02-04T02:31:42.894Z,5.05
2018-02-04T02:34:10.390Z,5.22
2018-02-04T02:36:38.682Z,6.12
2018-02-04T02:39:06.186Z,6.22
2018-02-04T02:41:33.698Z,7.40
2018-02-04T02:44:01.230Z,7.93
2018-02-04T02:46:28.720Z,7.43
2018-02-04T02:48:56.240Z,6.32
2018-02-04T02:51:23.770Z,7.18
2018-02-04T02:53:51.278Z,7.15
2018-02-04T02:56:19.558Z,7.95
2018-02-04T02:58:47.852Z,6.62
2018-02-04T03:01:15.372Z,6.47
2018-02-04T03:03:42.886Z,7.22
2018-02-04T03:06:10.440Z,6.30
2018-02-04T03:08:37.950Z,6.37
2018-02-04T03:11:05.471Z,6.37
2018-02-04T03:13:33.006Z,7.28
2018-02-04T03:16:00.514Z,6.72
2018-02-04T03:18:28.009Z,7.18
2018-02-04T03:20:55.538Z,6.40
2018-02-04T03:23:23.038Z,6.15
2018-02-04T03:25:50.560Z,6.65
2018-02-04T03:28:18.081Z,7.22
2018-02-04T03:30:45.582Z,6.72
2018-02-04T03:33:13.862Z,8.98
2018-02-04T03:35:42.168Z,8.32
2018-02-04T03:38:09.673Z,7.90
2018-02-04T03:40:37.192Z,7.95
2018-02-04T03:43:04.721Z,8.23
2018-02-04T03:45:32.993Z,7.30
2018-02-04T03:48:01.266Z,7.87
2018-02-04T03:50:29.570Z,7.12
2018-02-04T03:52:57.086Z,7.10
2018-02-04T03:55:24.605Z,7.40
2018-02-04T03:57:52.152Z,8.80
2018-02-04T04:00:19.663Z,8.30
2018-02-04T04:02:47.164Z,7.75
2018-02-04T04:05:14.699Z,8.07
2018-02-04T04:07:42.984Z,7.50
2018-02-04T04:10:11.268Z,8.25
2018-02-04T04:12:38.798Z,8.70
2018-02-04T04:15:06.305Z,7.20
2018-02-04T04:17:33.804Z,8.07
2018-02-04T04:20:01.338Z,8.45
2018-02-04T04:22:28.846Z,7.93
2018-02-04T04:24:57.108Z,8.30
2018-02-04T04:27:24.643Z,9.13
2018-02-04T04:29:52.145Z,8.65
2018-02-04T04:32:20.422Z,9.07
2018-02-04T04:34:48.728Z,8.48
2018-02-04T04:37:16.243Z,9.38
2018-02-04T04:39:44.514Z,9.52
2018-02-04T04:42:12.809Z,8.60
2018-02-04T04:44:41.086Z,10.43
2018-02-04T04:47:09.346Z,9.82
2018-02-04T04:49:36.872Z,8.00
2018-02-04T04:52:04.391Z,8.75
2018-02-04T04:54:31.915Z,9.55
2018-02-04T04:57:00.217Z,9.10
2018-02-04T04:59:28.494Z,8.75
2018-02-04T05:01:56.762Z,8.55
2018-02-04T05:04:25.043Z,8.60
2018-02-04T05:06:53.327Z,9.45
2018-02-04T05:09:20.832Z,10.30
2018-02-04T05:11:48.358Z,9.25
2018-02-04T05:14:15.871Z,9.40
2018-02-04T05:16:43.379Z,9.30
2018-02-04T05:19:10.901Z,8.10
2018-02-04T05:21:39.174Z,9.15
2018-02-04T05:24:07.446Z,7.70
2018-02-04T05:26:34.977Z,8.75
2018-02-04T05:29:02.472Z,8.98
2018-02-04T05:31:30.737Z,9.57
2018-02-04T05:33:58.279Z,10.35
2018-02-04T05:36:25.820Z,8.30
2018-02-04T05:38:53.293Z,7.82
2018-02-04T05:41:20.828Z,8.93
2018-02-04T05:43:48.329Z,8.02
2018-02-04T05:46:15.835Z,8.10
2018-02-04T05:48:43.365Z,7.32
2018-02-04T05:51:11.645Z,8.77
2018-02-04T05:53:39.933Z,8.02
2018-02-04T05:56:07.447Z,7.68
2018-02-04T05:58:34.945Z,9.10
2018-02-04T06:01:02.454Z,8.73
2018-02-04T06:03:29.995Z,8.50
2018-02-04T06:05:57.502Z,9.02
2018-02-04T06:08:25.790Z,10.65
2018-02-04T06:10:54.085Z,8.73
2018-02-04T06:13:21.583Z,10.13
2018-02-04T06:15:49.091Z,8.18
2018-02-04T06:18:16.631Z,9.80
2018-02-04T06:20:44.914Z,9.80
2018-02-04T06:23:13.690Z,9.77
2018-02-04T06:25:41.980Z,10.93
2018-02-04T06:28:10.263Z,10.45
2018-02-04T06:30:37.780Z,9.15
2018-02-04T06:33:05.297Z,9.43
2018-02-04T06:35:32.812Z,9.88
2018-02-04T06:38:01.105Z,8.82
2018-02-04T06:40:29.415Z,11.20
2018-02-04T06:42:56.925Z,11.52
2018-02-04T06:45:24.425Z,12.07
2018-02-04T06:47:51.958Z,10.35
2018-02-04T06:50:20.234Z,10.35
2018-02-04T06:52:48.520Z,10.60
2018-02-04T06:55:16.050Z,11.43
2018-02-04T06:57:43.612Z,11.20
2018-02-04T07:00:11.100Z,10.82
2018-02-04T07:02:38.644Z,12.18
2018-02-04T07:05:06.921Z,11.82
2018-02-04T07:07:35.211Z,11.40
2018-02-04T07:10:02.753Z,13.02
2018-02-04T07:12:31.039Z,12.35
2018-02-04T07:14:59.314Z,12.82
2018-02-04T07:17:27.605Z,12.93
2018-02-04T07:19:55.130Z,13.25
2018-02-04T07:22:22.634Z,11.68
2018-02-04T07:24:50.159Z,14.23
2018-02-04T07:27:18.431Z,13.82
2018-02-04T07:29:46.693Z,12.02
2018-02-04T07:32:14.226Z,12.90
2018-02-04T07:34:41.740Z,14.77
2018-02-04T07:37:10.014Z,15.15
2018-02-04T07:39:38.309Z,13.20
2018-02-04T07:42:05.801Z,14.02
2018-02-04T07:44:33.304Z,13.15
2018-02-04T07:47:01.588Z,13.52
2018-02-04T07:49:29.844Z,13.68
2018-02-04T07:51:58.126Z,14.70
2018-02-04T07:54:26.404Z,12.85
2018-02-04T07:56:54.683Z,14.80
2018-02-04T07:59:22.968Z,15.30
2018-02-04T08:01:50.489Z,14.00
2018-02-04T08:04:18.004Z,14.93
2018-02-04T08:06:45.496Z,13.82
2018-02-04T08:09:13.023Z,14.60
2018-02-04T08:11:40.513Z,13.25
2018-02-04T08:14:08.012Z,12.15
2018-02-04T08:16:36.306Z,13.60
2018-02-04T08:19:03.832Z,13.48
2018-02-04T08:21:32.114Z,12.57
2018-02-04T08:24:00.444Z,13.05
2018-02-04T08:26:27.953Z,12.88
2018-02-04T08:28:56.208Z,9.82
2018-02-04T08:31:23.736Z,11.90
2018-02-04T08:33:51.252Z,10.40
2018-02-04T08:36:18.792Z,9.55
2018-02-04T08:38:46.324Z,9.90
2018-02-04T08:41:13.825Z,8.88
2018-02-04T08:43:42.104Z,8.70
2018-02-04T08:46:10.391Z,8.50
2018-02-04T08:48:37.890Z,8.73
2018-02-04T08:51:05.395Z,8.15
2018-02-04T08:53:33.690Z,6.87
2018-02-04T08:56:01.204Z,6.97
2018-02-04T08:58:28.706Z,5.30
2018-02-04T09:00:56.229Z,6.43
2018-02-04T09:03:23.737Z,5.97
2018-02-04T09:05:51.238Z,5.85
2018-02-04T09:08:18.751Z,5.10
2018-02-04T09:10:46.249Z,5.82
2018-02-04T09:13:13.769Z,5.95
2018-02-04T09:15:41.297Z,6.15
2018-02-04T09:18:09.575Z,6.00
2018-02-04T09:20:37.829Z,6.30
2018-02-04T09:23:05.355Z,5.85
2018-02-04T09:25:32.862Z,5.65
2018-02-04T09:28:01.141Z,6.57
2018-02-04T09:30:29.438Z,7.20
2018-02-04T09:32:56.957Z,7.28
2018-02-04T09:35:24.458Z,7.20
2018-02-04T09:37:51.982Z,6.12
2018-02-04T09:40:20.249Z,6.40
2018-02-04T09:42:47.866Z,6.78
2018-02-04T09:45:15.397Z,6.30
2018-02-04T09:47:43.673Z,6.80
2018-02-04T09:50:11.187Z,6.75
2018-02-04T09:52:38.724Z,7.25
2018-02-04T09:55:06.213Z,7.00
2018-02-04T09:57:35.231Z,6.68
2018-02-04T10:00:03.535Z,6.25
2018-02-04T10:02:31.046Z,6.82
2018-02-04T10:04:58.559Z,7.87
2018-02-04T10:07:26.091Z,6.45
2018-02-04T10:09:54.357Z,6.30
2018-02-04T10:12:22.618Z,6.35
2018-02-04T10:14:50.146Z,7.72
2018-02-04T10:17:17.635Z,7.70
2018-02-04T10:19:45.129Z,7.15
2018-02-04T10:22:12.654Z,6.78
2018-02-04T10:24:40.148Z,7.65
2018-02-04T10:27:07.947Z,7.50
2018-02-04T10:29:35.475Z,7.85
2018-02-04T10:32:02.996Z,6.80
2018-02-04T10:34:31.284Z,7.47
2018-02-04T10:36:59.578Z,6.95
2018-02-04T10:39:27.133Z,6.47
2018-02-04T10:41:54.604Z,6.65
2018-02-04T10:44:22.244Z,6.12
2018-02-04T10:46:50.510Z,5.20
2018-02-04T10:49:18.764Z,4.87
2018-02-04T10:51:51.984Z,4.95
2018-02-04T10:54:20.291Z,5.32
2018-02-04T10:56:47.786Z,5.87
2018-02-04T10:59:15.847Z,5.50
2018-02-04T11:01:43.360Z,5.60
2018-02-04T11:04:10.877Z,5.37
2018-02-04T11:06:38.395Z,5.25
2018-02-04T11:09:05.904Z,6.78
2018-02-04T11:11:33.413Z,5.80
2018-02-04T11:14:00.942Z,6.60
2018-02-04T11:16:29.224Z,4.93
2018-02-04T11:18:57.508Z,6.43
2018-02-04T11:21:25.044Z,6.25
2018-02-04T11:23:53.309Z,6.78
2018-02-04T11:26:22.581Z,6.20
2018-02-04T11:28:50.118Z,6.35
2018-02-04T11:31:19.570Z,6.43
2018-02-04T11:33:47.080Z,7.00
2018-02-04T11:36:14.615Z,5.57
2018-02-04T11:38:42.886Z,5.40
2018-02-04T11:41:11.912Z,5.95
2018-02-04T11:43:39.441Z,5.55
2018-02-04T11:46:07.706Z,6.05
2018-02-04T11:48:35.974Z,5.75
2018-02-04T11:51:03.497Z,4.90
2018-02-04T11:53:30.984Z,5.12
2018-02-04T11:55:58.483Z,4.50
2018-02-04T11:58:25.997Z,4.97
2018-02-04T12:00:53.488Z,4.75
2018-02-04T12:03:21.763Z,4.72
2018-02-04T12:05:50.048Z,5.85
2018-02-04T12:08:17.542Z,5.65
2018-02-04T12:10:45.042Z,6.15
2018-02-04T12:13:13.324Z,4.95
2018-02-04T12:15:41.584Z,4.45
2018-02-04T12:18:09.100Z,5.00
2018-02-04T12:20:36.641Z,4.93
2018-02-04T12:23:04.146Z,4.07
2018-02-04T12:25:31.656Z,3.85
2018-02-04T12:27:59.191Z,3.75
2018-02-04T12:30:27.463Z,3.40
2018-02-04T12:32:55.720Z,3.87
2018-02-04T12:35:23.249Z,3.75
2018-02-04T12:37:50.737Z,3.15
2018-02-04T12:40:18.248Z,3.75
2018-02-04T12:42:46.777Z,3.45
2018-02-04T12:45:14.260Z,3.08
2018-02-04T12:47:42.522Z,3.80
2018-02-04T12:50:10.046Z,3.28
2018-02-04T12:52:37.690Z,3.78
2018-02-04T12:55:05.186Z,4.10
2018-02-04T12:57:32.710Z,4.03
2018-02-04T13:00:00.205Z,4.45
2018-02-04T13:02:27.705Z,3.87
2018-02-04T13:04:55.220Z,4.07
2018-02-04T13:07:22.712Z,4.05
2018-02-04T13:09:50.955Z,3.95
2018-02-04T13:12:19.258Z,4.20
2018-02-04T13:14:47.517Z,3.85
2018-02-04T13:17:15.005Z,3.35
2018-02-04T13:19:43.305Z,3.40
2018-02-04T13:22:10.791Z,3.20
2018-02-04T13:24:38.290Z,3.20
2018-02-04T13:27:06.573Z,3.58
2018-02-04T13:29:34.824Z,3.25
2018-02-04T13:32:02.313Z,3.83
2018-02-04T13:34:29.834Z,3.42
2018-02-04T13:36:57.334Z,3.22
2018-02-04T13:39:24.847Z,3.30
2018-02-04T13:41:52.373Z,4.25
2018-02-04T13:44:19.871Z,4.30
2018-02-04T13:46:47.376Z,4.03
2018-02-04T13:49:14.902Z,4.55
2018-02-04T13:51:43.157Z,3.87
2018-02-04T13:54:10.650Z,3.70
2018-02-04T13:56:38.178Z,4.20
2018-02-04T13:59:05.669Z,4.20
2018-02-04T14:01:33.166Z,3.70
2018-02-04T14:04:00.701Z,3.97
2018-02-04T14:06:28.203Z,3.62
2018-02-04T14:08:55.698Z,4.45
2018-02-04T14:11:23.984Z,3.75
2018-02-04T14:13:51.481Z,3.42
2018-02-04T14:16:18.980Z,4.53
2018-02-04T14:18:47.256Z,3.62
2018-02-04T14:21:15.522Z,4.05
2018-02-04T14:23:43.028Z,4.20
2018-02-04T14:26:10.549Z,3.90
2018-02-04T14:28:38.832Z,5.45
2018-02-04T14:31:07.101Z,4.87
2018-02-04T14:33:35.389Z,4.40
2018-02-04T14:36:02.901Z,4.95
2018-02-04T14:38:30.401Z,5.05
2018-02-04T14:40:58.690Z,4.35
2018-02-04T14:43:26.207Z,5.25
2018-02-04T14:45:53.711Z,3.75
2018-02-04T14:48:21.224Z,5.20
2018-02-04T14:50:48.742Z,4.43
2018-02-04T14:53:16.308Z,11.52
2018-02-04T14:55:43.830Z,6.22
2018-02-04T14:58:11.351Z,4.70
2018-02-04T15:00:38.850Z,4.28
2018-02-04T15:03:07.135Z,3.87
2018-02-04T15:05:34.639Z,3.92
2018-02-04T15:08:02.152Z,4.07
2018-02-04T15:10:29.698Z,3.90
2018-02-04T15:12:57.965Z,7.93
2018-02-04T15:15:26.249Z,6.78
2018-02-04T15:17:54.534Z,5.65
2018-02-04T15:20:22.047Z,4.20
2018-02-04T15:22:49.546Z,5.18
2018-02-04T15:25:17.845Z,4.35
2018-02-04T15:27:45.350Z,10.20
2018-02-04T15:30:12.850Z,8.18
2018-02-04T15:32:40.383Z,5.20
2018-02-04T15:35:08.663Z,5.05
2018-02-04T15:37:36.929Z,3.50
2018-02-04T15:40:04.459Z,3.90
2018-02-04T15:42:31.973Z,4.05
2018-02-04T15:44:59.932Z,4.68
2018-02-04T15:47:28.234Z,4.35
2018-02-04T15:49:55.740Z,4.32
2018-02-04T15:52:23.224Z,4.35
2018-02-04T15:54:51.500Z,3.95
2018-02-04T15:57:19.763Z,4.30
2018-02-04T15:59:47.252Z,3.75
2018-02-04T16:02:14.797Z,3.33
2018-02-04T16:04:43.061Z,3.83
2018-02-04T16:07:11.316Z,3.87
2018-02-04T16:09:38.848Z,4.60
2018-02-04T16:12:06.346Z,4.07
2018-02-04T16:14:33.846Z,4.40
2018-02-04T16:17:01.383Z,3.70
2018-02-04T16:19:29.654Z,4.00
2018-02-04T16:21:57.926Z,4.05
2018-02-04T16:24:26.238Z,4.25
2018-02-04T16:26:53.772Z,4.60
2018-02-04T16:29:22.027Z,4.50
2018-02-04T16:31:49.546Z,3.42
2018-02-04T16:34:17.041Z,4.60
2018-02-04T16:36:44.538Z,4.40
2018-02-04T16:39:12.057Z,4.85
2018-02-04T16:41:39.558Z,3.75
2018-02-04T16:44:07.058Z,3.75
2018-02-04T16:46:34.563Z,4.65
2018-02-04T16:49:02.057Z,4.60
2018-02-04T16:51:29.566Z,3.92
2018-02-04T16:53:57.856Z,4.20
2018-02-04T16:56:32.454Z,3.90
2018-02-04T16:59:00.746Z,4.68
2018-02-04T17:01:28.568Z,4.50
2018-02-04T17:03:56.201Z,4.80
2018-02-04T17:06:24.745Z,4.93
2018-02-04T17:08:53.006Z,4.72
2018-02-04T17:11:20.506Z,4.40
2018-02-04T17:13:48.029Z,4.28
2018-02-04T17:16:15.526Z,5.45
2018-02-04T17:18:43.012Z,4.37
2018-02-04T17:21:10.537Z,4.30
2018-02-04T17:23:38.100Z,4.53
2018-02-04T17:26:05.568Z,4.70
2018-02-04T17:28:33.076Z,5.05
2018-02-04T17:31:00.592Z,5.20
2018-02-04T17:33:28.095Z,5.12
2018-02-04T17:35:55.627Z,5.45
2018-02-04T17:38:23.120Z,5.68
2018-02-04T17:40:51.379Z,5.43
2018-02-04T17:43:19.034Z,5.95
2018-02-04T17:45:46.528Z,5.10
2018-02-04T17:48:14.793Z,6.25
2018-02-04T17:50:43.095Z,6.57
2018-02-04T17:53:10.606Z,6.22
2018-02-04T17:55:38.120Z,5.87
2018-02-04T17:58:05.664Z,6.85
2018-02-04T18:00:33.156Z,6.62
2018-02-04T18:03:00.658Z,7.28
2018-02-04T18:05:28.966Z,5.82
2018-02-04T18:07:56.487Z,7.72
2018-02-04T18:10:23.980Z,7.15
2018-02-04T18:12:51.511Z,7.40
2018-02-04T18:15:19.788Z,7.37
2018-02-04T18:17:48.076Z,7.68
2018-02-04T18:20:16.360Z,7.95
2018-02-04T18:22:43.856Z,6.87
2018-02-04T18:25:11.357Z,5.90
2018-02-04T18:27:39.664Z,7.25
2018-02-04T18:30:07.181Z,6.97
2018-02-04T18:32:34.699Z,7.82
2018-02-04T18:35:02.229Z,6.90
2018-02-04T18:37:29.752Z,9.93
2018-02-04T18:39:57.249Z,9.10
2018-02-04T18:42:24.783Z,8.30
2018-02-04T18:44:53.066Z,8.75
2018-02-04T18:47:21.349Z,9.50
2018-02-04T18:49:49.662Z,8.60
2018-02-04T18:52:17.168Z,8.68
2018-02-04T18:54:45.432Z,9.32
2018-02-04T18:57:12.983Z,9.60
2018-02-04T18:59:40.494Z,8.95
2018-02-04T19:02:08.010Z,9.20
2018-02-04T19:04:35.542Z,9.75
2018-02-04T19:07:03.053Z,10.82
2018-02-04T19:09:31.335Z,9.68
2018-02-04T19:11:59.625Z,10.00
2018-02-04T19:14:27.125Z,9.98
2018-02-04T19:16:54.628Z,10.75
2018-02-04T19:19:22.927Z,10.80
2018-02-04T19:21:50.438Z,10.55
2018-02-04T19:24:17.932Z,10.30
2018-02-04T19:26:45.453Z,12.25
2018-02-04T19:29:12.961Z,12.50
2018-02-04T19:31:40.488Z,11.30
2018-02-04T19:34:08.779Z,11.20
2018-02-04T19:36:36.306Z,11.12
2018-02-04T19:39:03.818Z,11.15
2018-02-04T19:41:31.349Z,12.45
2018-02-04T19:43:59.622Z,10.77
2018-02-04T19:46:27.898Z,11.88
2018-02-04T19:48:56.203Z,11.88
2018-02-04T19:51:23.704Z,12.00
2018-02-04T19:53:51.205Z,12.27
2018-02-04T19:56:18.752Z,11.30
2018-02-04T19:58:46.274Z,11.73
2018-02-04T20:01:13.791Z,13.88
2018-02-04T20:03:41.322Z,12.85
2018-02-04T20:06:09.620Z,13.82
2018-02-04T20:08:37.133Z,12.63
2018-02-04T20:11:04.670Z,14.02
2018-02-04T20:13:32.178Z,13.60
2018-02-04T20:16:00.449Z,12.95
2018-02-04T20:18:28.793Z,12.07
2018-02-04T20:20:56.299Z,14.13
2018-02-04T20:23:23.824Z,13.05
2018-02-04T20:25:51.371Z,13.52
2018-02-04T20:28:18.882Z,13.73
2018-02-04T20:30:46.390Z,12.32
2018-02-04T20:33:21.886Z,15.18
2018-02-04T20:35:49.389Z,13.15
2018-02-04T20:38:16.938Z,13.90
2018-02-04T20:40:44.468Z,13.40
2018-02-04T20:43:11.988Z,13.13
2018-02-04T20:45:40.680Z,15.18
2018-02-04T20:48:09.114Z,13.52
2018-02-04T20:50:36.612Z,13.75
2018-02-04T20:53:04.113Z,14.25
2018-02-04T20:55:31.636Z,12.93
2018-02-04T20:58:01.375Z,12.88
2018-02-04T21:00:29.000Z,14.63
2018-02-04T21:02:57.318Z,15.10
2018-02-04T21:05:24.850Z,13.30
2018-02-04T21:07:53.118Z,14.05
2018-02-04T21:10:21.418Z,15.07
2018-02-04T21:12:48.930Z,12.93
2018-02-04T21:15:16.451Z,13.35
2018-02-04T21:17:43.991Z,14.52
2018-02-04T21:20:11.493Z,13.65
2018-02-04T21:22:39.001Z,14.27
2018-02-04T21:25:07.312Z,13.90
2018-02-04T21:27:34.822Z,13.55
2018-02-04T21:30:03.106Z,11.98
2018-02-04T21:32:31.402Z,13.90
2018-02-04T21:34:58.913Z,13.55
2018-02-04T21:37:26.427Z,14.70
2018-02-04T21:39:53.958Z,13.75
2018-02-04T21:42:22.223Z,14.57
2018-02-04T21:44:49.730Z,14.65
2018-02-04T21:47:17.262Z,14.23
2018-02-04T21:49:44.788Z,12.30
2018-02-04T21:52:12.303Z,12.15
2018-02-04T21:54:39.838Z,12.68
2018-02-04T21:57:07.357Z,13.45
2018-02-04T21:59:34.860Z,13.23
2018-02-04T22:02:02.389Z,12.18
2018-02-04T22:04:29.901Z,14.13
2018-02-04T22:06:57.410Z,13.35
2018-02-04T22:09:25.701Z,12.93
2018-02-04T22:11:53.984Z,12.40
2018-02-04T22:14:21.494Z,12.45
2018-02-04T22:16:49.033Z,12.27
2018-02-04T22:19:16.536Z,13.90
2018-02-04T22:21:44.814Z,13.02
2018-02-04T22:24:13.114Z,12.45
2018-02-04T22:26:40.636Z,13.20
2018-02-04T22:29:08.146Z,14.95
2018-02-04T22:31:35.678Z,13.85
2018-02-04T22:34:03.953Z,12.93
2018-02-04T22:36:32.230Z,12.52
2018-02-04T22:39:00.544Z,12.52
2018-02-04T22:41:28.054Z,14.20
2018-02-04T22:43:56.319Z,12.10
2018-02-04T22:46:23.850Z,12.85
2018-02-04T22:48:51.358Z,14.73
2018-02-04T22:51:19.628Z,12.85
2018-02-04T22:53:47.943Z,12.95
2018-02-04T22:56:15.463Z,12.80
2018-02-04T22:58:43.752Z,13.73
2018-02-04T23:01:12.024Z,14.25
2018-02-04T23:03:40.292Z,12.43
2018-02-04T23:06:08.566Z,13.40
2018-02-04T23:08:36.866Z,13.45
2018-02-04T23:11:04.387Z,10.82
2018-02-04T23:13:31.900Z,12.82
2018-02-04T23:15:59.429Z,12.85
2018-02-04T23:18:27.706Z,13.48
2018-02-04T23:20:55.990Z,12.48
2018-02-04T23:23:23.526Z,13.15
2018-02-04T23:25:51.824Z,13.57
2018-02-04T23:28:20.097Z,12.65
2018-02-04T23:30:48.401Z,11.88
2018-02-04T23:33:15.911Z,13.27
2018-02-04T23:35:43.431Z,12.10
2018-02-04T23:38:10.956Z,12.75
2018-02-04T23:40:38.489Z,12.68
2018-02-04T23:43:05.996Z,11.77
2018-02-04T23:45:33.526Z,12.43
2018-02-04T23:48:01.800Z,12.00
2018-02-04T23:50:30.077Z,13.15
2018-02-04T23:52:58.365Z,12.93
2018-02-04T23:55:25.874Z,11.73
2018-02-04T23:57:53.398Z,12.85
